Time;durP1;ratioP1;P1;durP2;ratioP2;P2;SDS_P1;SDS_P2;PMS_P1;PMS_P2;Temp;Humidity;BMP_temperature;BMP_pressure;BME280_temperature;BME280_humidity;BME280_pressure;Samples;Min_cycle;Max_cycle;Signal;HPM_P1;HPM_P2
2022/09/09 00:01:09;;;;;;;4.63;2.80;;;;;;;12.70;100.00;100519.31;1970136;28;20506;-72
2022/09/09 00:02:23;;;;;;;7.22;3.00;;;;;;;12.67;100.00;100514.25;1970099;28;20381;-69
2022/09/09 00:03:30;;;;;;;4.60;2.80;;;;;;;12.68;100.00;100513.31;1969954;28;20048;-70
2022/09/09 00:04:33;;;;;;;4.72;2.85;;;;;;;12.69;100.00;100515.03;1967731;28;20220;-73
2022/09/09 00:06:21;;;;;;;3.08;2.78;;;;;;;12.70;100.00;100516.69;1970068;28;20059;-70
2022/09/09 00:07:40;;;;;;;4.03;2.38;;;;;;;12.67;100.00;100514.25;1961762;28;20034;-72
2022/09/09 00:09:15;;;;;;;4.77;2.67;;;;;;;12.67;100.00;100503.78;1960476;28;20034;-72
2022/09/09 00:10:29;;;;;;;4.90;2.47;;;;;;;12.66;100.00;100504.72;1963974;28;20307;-71
2022/09/09 00:11:45;;;;;;;3.95;2.53;;;;;;;12.67;100.00;100509.03;1961621;28;20073;-71
2022/09/09 00:13:16;;;;;;;2.83;2.53;;;;;;;12.65;100.00;100503.00;1963666;28;20063;-70
2022/09/09 00:14:29;;;;;;;4.40;2.70;;;;;;;12.62;100.00;100502.28;1970038;28;20026;-72
2022/09/09 00:15:41;;;;;;;4.78;2.42;;;;;;;12.65;100.00;100500.38;1970000;28;20030;-73
2022/09/09 00:16:49;;;;;;;5.03;2.40;;;;;;;12.66;100.00;100496.88;1970045;28;20478;-71
2022/09/09 00:18:14;;;;;;;3.45;2.47;;;;;;;12.62;100.00;100494.41;1970093;28;20112;-69
2022/09/09 00:19:20;;;;;;;3.53;2.72;;;;;;;12.62;100.00;100502.28;1970047;28;20037;-71
2022/09/09 00:20:46;;;;;;;8.85;2.78;;;;;;;12.64;100.00;100488.25;1969917;28;20032;-71
2022/09/09 00:22:16;;;;;;;3.42;2.40;;;;;;;12.64;100.00;100501.34;1970068;28;20044;-72
2022/09/09 00:23:32;;;;;;;4.88;2.60;;;;;;;12.62;100.00;100491.81;1969930;28;20026;-73
2022/09/09 00:24:41;;;;;;;4.60;2.40;;;;;;;12.62;100.00;100499.66;1961516;28;20038;-72
2022/09/09 00:25:53;;;;;;;3.15;2.42;;;;;;;12.62;100.00;100501.41;1954750;28;20541;-72
2022/09/09 00:27:00;;;;;;;3.58;2.45;;;;;;;12.61;100.00;100500.59;1962733;28;20478;-73
2022/09/09 00:27:58;;;;;;;5.43;2.58;;;;;;;12.62;100.00;100491.81;1969922;28;20104;-72
2022/09/09 00:29:39;;;;;;;4.00;2.65;;;;;;;12.61;100.00;100505.81;1969778;28;20111;-73
2022/09/09 00:30:38;;;;;;;5.65;2.92;;;;;;;12.57;100.00;100501.69;1953433;28;20097;-72
2022/09/09 00:31:37;;;;;;;4.03;2.80;;;;;;;12.58;100.00;100502.53;1959717;28;20056;-72
2022/09/09 00:32:35;;;;;;;7.72;2.90;;;;;;;12.58;100.00;100503.38;1969307;28;20079;-73
2022/09/09 00:33:33;;;;;;;3.85;2.60;;;;;;;12.59;100.00;100501.63;1969931;28;20021;-73
2022/09/09 00:34:33;;;;;;;6.43;3.13;;;;;;;12.57;100.00;100493.00;1967509;28;20026;-74
2022/09/09 00:35:37;;;;;;;4.82;3.17;;;;;;;12.58;100.00;100499.91;1969826;28;20037;-72
2022/09/09 00:36:37;;;;;;;3.78;2.70;;;;;;;12.61;100.00;100490.13;1969909;28;20039;-72
2022/09/09 00:37:35;;;;;;;2.85;2.60;;;;;;;12.59;100.00;100491.97;1969892;28;20505;-73
2022/09/09 00:38:41;;;;;;;5.18;3.05;;;;;;;12.60;100.00;100491.03;1969828;28;20034;-73
2022/09/09 00:39:47;;;;;;;5.47;2.85;;;;;;;12.60;100.00;100493.66;1961527;28;20026;-73
2022/09/09 00:41:10;;;;;;;3.85;2.78;;;;;;;12.60;100.00;100495.44;1961938;28;20558;-73
2022/09/09 00:42:19;;;;;;;6.15;3.25;;;;;;;12.58;100.00;100495.53;1969839;28;20033;-73
2022/09/09 00:43:36;;;;;;;4.93;2.95;;;;;;;12.59;100.00;100486.72;1969716;28;20037;-73
2022/09/09 00:44:37;;;;;;;3.53;2.90;;;;;;;12.56;100.00;100492.13;1969785;28;20034;-71
2022/09/09 00:46:23;;;;;;;5.47;2.80;;;;;;;12.54;100.00;100483.53;1969826;28;20452;-72
2022/09/09 00:47:53;;;;;;;5.68;2.83;;;;;;;12.54;100.00;100480.91;1961071;28;20633;-71
2022/09/09 00:49:30;;;;;;;2.50;2.30;;;;;;;12.56;100.00;100478.22;1961192;28;20119;-72
2022/09/09 00:50:56;;;;;;;4.15;2.50;;;;;;;12.53;100.00;100481.88;1969797;28;20041;-72
2022/09/09 00:52:43;;;;;;;5.72;3.10;;;;;;;12.51;100.00;100483.72;1969779;28;20026;-70
2022/09/09 00:54:37;;;;;;;5.32;3.10;;;;;;;12.49;100.00;100480.34;1969686;28;20029;-72
2022/09/09 00:56:05;;;;;;;5.65;2.47;;;;;;;12.53;100.00;100478.38;1969710;28;20038;-72
2022/09/09 00:57:13;;;;;;;4.90;2.53;;;;;;;12.50;100.00;100479.41;1969705;28;20076;-72
2022/09/09 00:58:12;;;;;;;4.95;2.70;;;;;;;12.52;100.00;100472.31;1969639;28;20460;-72
2022/09/09 00:59:46;;;;;;;4.70;2.70;;;;;;;12.53;100.00;100476.63;1961383;28;20277;-71
2022/09/09 01:01:09;;;;;;;4.65;2.40;;;;;;;12.55;100.00;100474.75;1965806;28;20034;-71
2022/09/09 01:02:28;;;;;;;10.95;3.20;;;;;;;12.55;100.00;100477.38;1969672;28;20490;-69
2022/09/09 01:03:37;;;;;;;4.07;2.65;;;;;;;12.60;100.00;100472.69;1961907;28;20074;-70
2022/09/09 01:04:36;;;;;;;2.75;2.08;;;;;;;12.61;100.00;100474.41;1951014;28;20030;-70
2022/09/09 01:05:46;;;;;;;4.50;2.80;;;;;;;12.62;100.00;100472.63;1953909;28;20034;-70
2022/09/09 01:06:57;;;;;;;6.28;2.97;;;;;;;12.59;100.00;100476.25;1961987;28;20556;-73
2022/09/09 01:08:00;;;;;;;4.80;2.85;;;;;;;12.59;100.00;100471.03;1961925;28;20077;-69
2022/09/09 01:09:25;;;;;;;4.47;2.67;;;;;;;12.62;100.00;100478.72;1961985;28;20387;-72
2022/09/09 01:10:46;;;;;;;6.07;2.50;;;;;;;12.61;100.00;100474.41;1961860;28;20103;-70
2022/09/09 01:12:17;;;;;;;5.07;2.58;;;;;;;12.66;100.00;100470.69;1961937;28;20053;-75
2022/09/09 01:13:35;;;;;;;5.80;2.67;;;;;;;12.63;100.00;100471.72;1961952;28;20064;-69
2022/09/09 01:14:39;;;;;;;4.65;2.42;;;;;;;12.62;100.00;100475.25;1961792;28;20126;-70
2022/09/09 01:15:42;;;;;;;8.52;3.05;;;;;;;12.61;100.00;100479.66;1961950;28;20022;-70
2022/09/09 01:16:41;;;;;;;6.60;2.90;;;;;;;12.63;100.00;100471.72;1961750;28;20500;-69
2022/09/09 01:17:49;;;;;;;7.18;3.13;;;;;;;12.67;100.00;100475.84;1961930;28;20052;-71
2022/09/09 01:18:52;;;;;;;5.47;2.65;;;;;;;12.69;100.00;100475.75;1961915;28;20030;-72
2022/09/09 01:20:04;;;;;;;4.97;2.88;;;;;;;12.68;100.00;100474.91;1961882;28;20022;-71
2022/09/09 01:21:44;;;;;;;4.45;2.83;;;;;;;12.67;100.00;100472.38;1961718;28;20394;-71
2022/09/09 01:23:02;;;;;;;4.82;3.00;;;;;;;12.62;100.00;100468.25;1961804;28;20096;-71
2022/09/09 01:24:31;;;;;;;5.25;2.90;;;;;;;12.60;100.00;100477.94;1961823;28;20499;-71
2022/09/09 01:25:43;;;;;;;4.32;3.15;;;;;;;12.61;100.00;100463.09;1961748;28;20529;-71
2022/09/09 01:26:46;;;;;;;5.90;3.33;;;;;;;12.61;100.00;100466.56;1953406;28;20034;-71
2022/09/09 01:27:48;;;;;;;3.47;2.83;;;;;;;12.61;100.00;100461.31;1953777;28;20030;-73
2022/09/09 01:28:52;;;;;;;5.65;3.10;;;;;;;12.62;100.00;100468.25;1953532;28;20031;-71
2022/09/09 01:29:50;;;;;;;10.07;3.22;;;;;;;12.64;100.00;100462.91;1946154;28;20027;-68
2022/09/09 01:30:48;;;;;;;7.88;3.25;;;;;;;12.63;100.00;100466.47;1953737;28;20041;-70
2022/09/09 01:31:56;;;;;;;6.93;3.70;;;;;;;12.62;100.00;100465.63;1960951;28;20030;-69
2022/09/09 01:32:58;;;;;;;5.53;3.53;;;;;;;12.59;100.00;100465.78;1961824;28;20048;-71
2022/09/09 01:33:56;;;;;;;5.57;3.15;;;;;;;12.60;100.00;100461.41;1961837;28;20023;-71
2022/09/09 01:34:53;;;;;;;5.20;3.05;;;;;;;12.61;100.00;100466.56;1959597;28;20026;-71
2022/09/09 01:36:00;;;;;;;5.63;3.40;;;;;;;12.61;100.00;100463.94;1961829;28;20513;-70
2022/09/09 01:37:08;;;;;;;6.97;3.15;;;;;;;12.62;100.00;100463.00;1961909;28;20503;-70
2022/09/09 01:38:06;;;;;;;8.02;3.20;;;;;;;12.62;100.00;100460.38;1961895;28;20030;-71
2022/09/09 01:39:03;;;;;;;5.90;3.38;;;;;;;12.59;100.00;100455.31;1953635;28;20463;-72
2022/09/09 01:40:01;;;;;;;8.73;3.67;;;;;;;12.62;100.00;100455.16;1953652;28;20026;-71
2022/09/09 01:40:59;;;;;;;8.00;3.78;;;;;;;12.61;100.00;100453.47;1961097;28;20033;-71
2022/09/09 01:41:57;;;;;;;6.57;3.90;;;;;;;12.60;100.00;100457.00;1961830;28;20042;-68
2022/09/09 01:42:56;;;;;;;5.90;3.47;;;;;;;12.61;100.00;100455.22;1961892;28;20022;-70
2022/09/09 01:43:55;;;;;;;8.10;3.60;;;;;;;12.61;100.00;100453.47;1961756;28;20110;-72
2022/09/09 01:44:54;;;;;;;8.50;4.20;;;;;;;12.61;100.00;100448.25;1961830;28;20061;-73
2022/09/09 01:45:58;;;;;;;9.30;4.15;;;;;;;12.60;100.00;100457.00;1961771;28;20112;-71
2022/09/09 01:46:56;;;;;;;7.07;3.60;;;;;;;12.61;100.00;100450.00;1961898;28;20385;-72
2022/09/09 01:47:53;;;;;;;8.20;3.63;;;;;;;12.59;100.00;100452.69;1961657;28;20057;-71
2022/09/09 01:48:54;;;;;;;7.03;3.90;;;;;;;12.60;100.00;100451.75;1961852;28;20378;-69
2022/09/09 01:49:51;;;;;;;7.22;3.40;;;;;;;12.58;100.00;100448.41;1953532;28;20027;-71
2022/09/09 01:50:49;;;;;;;7.63;4.07;;;;;;;12.59;100.00;100455.31;1953710;28;20031;-71
2022/09/09 01:51:53;;;;;;;10.52;4.05;;;;;;;12.59;100.00;100450.09;1960812;28;20578;-71
2022/09/09 01:52:56;;;;;;;6.85;4.00;;;;;;;12.61;100.00;100443.00;1953515;28;20019;-72
2022/09/09 01:53:54;;;;;;;7.32;3.80;;;;;;;12.60;100.00;100451.75;1953494;28;20063;-74
2022/09/09 01:54:51;;;;;;;9.88;4.00;;;;;;;12.62;100.00;100452.53;1961902;28;20394;-69
2022/09/09 01:56:23;;;;;;;6.53;3.70;;;;;;;12.60;100.00;100443.91;1953519;28;20026;-69
2022/09/09 01:57:42;;;;;;;9.50;4.10;;;;;;;12.57;100.00;100449.34;1949466;28;20033;-70
2022/09/09 01:59:18;;;;;;;11.55;4.20;;;;;;;12.57;100.00;100446.72;1955714;28;20118;-69
2022/09/09 02:00:16;;;;;;;6.60;3.75;;;;;;;12.56;100.00;100445.03;1947676;28;20459;-70
2022/09/09 02:01:29;;;;;;;6.40;3.75;;;;;;;12.57;100.00;100438.88;1961709;28;20038;-70
2022/09/09 02:02:53;;;;;;;11.18;3.90;;;;;;;12.56;100.00;100442.41;1962798;28;20146;-71
2022/09/09 02:03:58;;;;;;;7.20;3.83;;;;;;;12.55;100.00;100443.34;1969434;28;20053;-71
2022/09/09 02:05:39;;;;;;;10.25;4.07;;;;;;;12.55;100.00;100432.88;1967139;28;20025;-70
2022/09/09 02:06:40;;;;;;;9.70;3.72;;;;;;;12.53;100.00;100439.13;1961044;28;20070;-70
2022/09/09 02:07:41;;;;;;;9.48;4.22;;;;;;;12.50;100.00;100440.16;1961282;28;20429;-71
2022/09/09 02:08:48;;;;;;;5.80;3.92;;;;;;;12.50;100.00;100437.53;1969387;28;20022;-70
2022/09/09 02:09:57;;;;;;;8.43;4.03;;;;;;;12.47;100.00;100430.72;1969556;28;20033;-70
2022/09/09 02:11:12;;;;;;;9.68;3.40;;;;;;;12.52;100.00;100433.03;1969448;28;20022;-71
2022/09/09 02:12:18;;;;;;;8.98;4.00;;;;;;;12.49;100.00;100422.78;1969454;28;20030;-70
2022/09/09 02:13:21;;;;;;;10.82;4.57;;;;;;;12.46;100.00;100434.22;1969468;28;20470;-70
2022/09/09 02:14:27;;;;;;;9.48;4.18;;;;;;;12.49;100.00;100430.63;1969397;28;20101;-70
2022/09/09 02:15:41;;;;;;;7.88;4.35;;;;;;;12.46;100.00;100428.19;1969454;28;20470;-70
2022/09/09 02:16:50;;;;;;;8.38;4.00;;;;;;;12.44;100.00;100430.03;1961108;28;20040;-69
2022/09/09 02:17:51;;;;;;;6.57;3.70;;;;;;;12.49;100.00;100428.00;1961808;28;20466;-70
2022/09/09 02:19:16;;;;;;;5.97;4.10;;;;;;;12.50;100.00;100429.69;1969462;28;20433;-72
2022/09/09 02:20:15;;;;;;;7.97;4.60;;;;;;;12.47;100.00;100440.31;1969545;28;20432;-69
2022/09/09 02:21:15;;;;;;;6.93;4.55;;;;;;;12.47;100.00;100445.56;1969414;28;20040;-71
2022/09/09 02:22:15;;;;;;;7.78;4.13;;;;;;;12.45;100.00;100442.16;1969471;28;20390;-69
2022/09/09 02:23:14;;;;;;;;;;;;;;;12.47;100.00;100441.19;1961468;28;20030;-69
2022/09/09 02:24:15;;;;;;;12.65;4.70;;;;;;;12.45;100.00;100436.94;1961152;28;19924;-69
2022/09/09 02:25:18;;;;;;;9.43;3.80;;;;;;;12.46;100.00;100438.66;1969255;28;20078;-69
2022/09/09 02:26:21;;;;;;;9.30;4.25;;;;;;;12.44;100.00;100440.50;1961103;28;20483;-70
2022/09/09 02:27:21;;;;;;;8.88;4.22;;;;;;;12.46;100.00;100439.47;1961106;28;20491;-69
2022/09/09 02:28:25;;;;;;;11.40;4.28;;;;;;;12.47;100.00;100440.31;1969479;28;20121;-70
2022/09/09 02:29:31;;;;;;;9.00;4.22;;;;;;;12.47;100.00;100435.09;1969176;28;20109;-69
2022/09/09 02:30:33;;;;;;;6.97;4.00;;;;;;;12.43;100.00;100430.97;1969418;28;20098;-68
2022/09/09 02:31:35;;;;;;;7.03;4.38;;;;;;;12.42;100.00;100427.50;1969359;28;20096;-69
2022/09/09 02:32:36;;;;;;;9.07;4.45;;;;;;;12.40;100.00;100431.97;1961054;28;20109;-69
2022/09/09 02:33:42;;;;;;;10.77;4.85;;;;;;;12.40;100.00;100428.50;1962124;28;20022;-72
2022/09/09 02:34:51;;;;;;;8.43;4.38;;;;;;;12.45;100.00;100426.47;1968363;28;20029;-68
2022/09/09 02:35:51;;;;;;;7.68;4.38;;;;;;;12.45;100.00;100423.84;1970703;28;20113;-69
2022/09/09 02:36:53;;;;;;;5.93;4.38;;;;;;;12.42;100.00;100426.66;1970813;28;20037;-69
2022/09/09 02:37:56;;;;;;;9.45;4.30;;;;;;;12.46;100.00;100428.19;1970638;28;20022;-69
2022/09/09 02:38:55;;;;;;;10.05;4.63;;;;;;;12.44;100.00;100424.78;1970704;28;20090;-70
2022/09/09 02:39:53;;;;;;;14.40;4.72;;;;;;;12.42;100.00;100424.88;1970702;28;20022;-68
2022/09/09 02:40:50;;;;;;;5.22;3.95;;;;;;;12.43;100.00;100426.59;1970702;28;20022;-70
2022/09/09 02:41:47;;;;;;;7.57;4.63;;;;;;;12.44;100.00;100424.78;1970609;28;20057;-71
2022/09/09 02:42:48;;;;;;;10.55;4.63;;;;;;;12.46;100.00;100421.16;1970699;28;20172;-69
2022/09/09 02:43:45;;;;;;;;;;;;;;;12.46;100.00;100423.75;1971106;28;20109;-67
2022/09/09 02:44:44;;;;;;;7.95;4.40;;;;;;;12.42;100.00;100419.63;1962234;28;19910;-70
2022/09/09 02:46:00;;;;;;;10.57;4.85;;;;;;;12.43;100.00;100413.50;1962415;28;20036;-68
2022/09/09 02:47:19;;;;;;;9.90;4.40;;;;;;;12.44;100.00;100419.56;1970701;28;20042;-70
2022/09/09 02:48:39;;;;;;;9.43;4.40;;;;;;;12.41;100.00;100420.56;1962306;28;20068;-70
2022/09/09 02:50:16;;;;;;;8.80;3.83;;;;;;;12.47;100.00;100422.84;1964200;28;20050;-68
2022/09/09 02:51:32;;;;;;;6.63;4.07;;;;;;;12.42;100.00;100421.44;1968899;28;20044;-68
2022/09/09 02:53:10;;;;;;;11.50;4.80;;;;;;;12.39;100.00;100421.59;1970539;28;20108;-69
2022/09/09 02:54:30;;;;;;;9.63;4.15;;;;;;;12.42;100.00;100417.03;1962200;28;20022;-70
2022/09/09 02:55:43;;;;;;;9.93;4.53;;;;;;;12.41;100.00;100419.72;1964813;28;20453;-67
2022/09/09 02:56:50;;;;;;;8.73;3.90;;;;;;;12.47;100.00;100424.63;1970440;28;20032;-70
2022/09/09 02:57:51;;;;;;;10.13;4.40;;;;;;;12.47;100.00;100419.38;1970584;28;20030;-73
2022/09/09 02:58:51;;;;;;;11.07;4.65;;;;;;;12.42;100.00;100429.28;1970553;28;20029;-67
2022/09/09 02:59:51;;;;;;;7.30;4.50;;;;;;;12.45;100.00;100426.47;1970569;28;20109;-69
2022/09/09 03:00:51;;;;;;;13.45;4.53;;;;;;;12.45;100.00;100431.69;1970532;28;20531;-70
2022/09/09 03:01:48;;;;;;;14.83;4.13;;;;;;;12.48;100.00;100426.28;1970645;28;20060;-68
2022/09/09 03:02:45;;;;;;;10.02;4.10;;;;;;;12.52;100.00;100433.03;1970354;28;20634;-68
2022/09/09 03:03:44;;;;;;;11.50;4.18;;;;;;;12.49;100.00;100431.44;1962108;28;20494;-69
2022/09/09 03:04:44;;;;;;;10.18;4.50;;;;;;;12.48;100.00;100435.00;1959973;28;20041;-70
2022/09/09 03:05:42;;;;;;;7.93;4.07;;;;;;;12.49;100.00;100428.00;1970178;28;20493;-69
2022/09/09 03:06:40;;;;;;;7.78;4.28;;;;;;;12.51;100.00;100430.50;1962172;28;20109;-68
2022/09/09 03:07:39;;;;;;;9.80;4.40;;;;;;;12.50;100.00;100432.31;1962142;28;20026;-70
2022/09/09 03:08:37;;;;;;;8.70;3.97;;;;;;;12.49;100.00;100430.63;1969932;28;20049;-69
2022/09/09 03:09:34;;;;;;;13.75;4.40;;;;;;;12.52;100.00;100427.81;1970468;28;20752;-68
2022/09/09 03:10:33;;;;;;;7.97;3.85;;;;;;;12.54;100.00;100431.19;1970568;28;20036;-66
2022/09/09 03:11:30;;;;;;;8.18;4.05;;;;;;;12.52;100.00;100433.03;1970384;28;20047;-69
2022/09/09 03:12:27;;;;;;;8.18;3.90;;;;;;;12.53;100.00;100429.50;1970550;28;20065;-69
2022/09/09 03:13:25;;;;;;;10.13;3.92;;;;;;;12.54;100.00;100428.56;1970551;28;20477;-70
2022/09/09 03:14:24;;;;;;;8.73;4.13;;;;;;;12.53;100.00;100426.91;1970408;28;20036;-70
2022/09/09 03:15:22;;;;;;;10.10;3.90;;;;;;;12.52;100.00;100426.97;1970371;28;20037;-72
2022/09/09 03:16:21;;;;;;;10.90;3.83;;;;;;;12.52;100.00;100426.97;1962117;28;20037;-68
2022/09/09 03:17:18;;;;;;;9.93;3.70;;;;;;;12.53;100.00;100426.91;1962232;28;20034;-70
2022/09/09 03:18:16;;;;;;;5.82;3.70;;;;;;;12.52;100.00;100427.81;1969794;28;20112;-68
2022/09/09 03:19:13;;;;;;;8.82;3.72;;;;;;;12.55;100.00;100432.00;1962112;28;20043;-70
2022/09/09 03:20:10;;;;;;;6.60;3.72;;;;;;;12.56;100.00;100431.94;1962252;28;20479;-68
2022/09/09 03:21:08;;;;;;;9.40;3.70;;;;;;;12.58;100.00;100432.69;1969538;28;20026;-69
2022/09/09 03:22:05;;;;;;;7.45;3.45;;;;;;;12.57;100.00;100436.25;1970368;28;20032;-71
2022/09/09 03:23:03;;;;;;;11.65;4.03;;;;;;;12.57;100.00;100438.88;1970430;28;20396;-70
2022/09/09 03:24:03;;;;;;;9.82;3.78;;;;;;;12.57;100.00;100441.50;1970222;28;20110;-70
2022/09/09 03:25:02;;;;;;;7.40;3.25;;;;;;;12.60;100.00;100440.47;1970476;28;20050;-70
2022/09/09 03:25:59;;;;;;;8.05;3.60;;;;;;;12.59;100.00;100444.03;1970467;28;20030;-70
2022/09/09 03:26:57;;;;;;;7.05;3.90;;;;;;;12.60;100.00;100440.47;1962108;28;20034;-69
2022/09/09 03:27:55;;;;;;;9.00;3.83;;;;;;;12.61;100.00;100442.16;1962070;28;20026;-69
2022/09/09 03:28:53;;;;;;;7.18;3.42;;;;;;;12.62;100.00;100439.44;1969663;28;20105;-70
2022/09/09 03:29:51;;;;;;;8.88;3.28;;;;;;;12.63;100.00;100435.06;1970236;28;20029;-69
2022/09/09 03:30:48;;;;;;;7.57;3.70;;;;;;;12.65;100.00;100437.56;1970246;28;20018;-69
2022/09/09 03:31:46;;;;;;;8.00;3.60;;;;;;;12.67;100.00;100441.81;1970498;28;20038;-69
2022/09/09 03:32:44;;;;;;;9.18;3.75;;;;;;;12.67;100.00;100438.34;1970260;28;20496;-69
2022/09/09 03:33:42;;;;;;;5.78;3.42;;;;;;;12.67;100.00;100438.34;1970359;28;20547;-69
2022/09/09 03:34:40;;;;;;;11.20;3.47;;;;;;;12.67;100.00;100440.94;1968069;28;20057;-70
2022/09/09 03:35:37;;;;;;;9.52;3.58;;;;;;;12.68;100.00;100437.41;1962020;28;20486;-70
2022/09/09 03:36:35;;;;;;;7.90;3.55;;;;;;;12.70;100.00;100436.38;1962001;28;20034;-69
2022/09/09 03:37:32;;;;;;;10.18;3.72;;;;;;;12.68;100.00;100440.88;1969382;28;20036;-70
2022/09/09 03:38:29;;;;;;;8.77;3.55;;;;;;;12.71;100.00;100439.84;1961861;28;20453;-69
2022/09/09 03:39:27;;;;;;;8.10;3.33;;;;;;;12.72;100.00;100444.13;1962081;28;20044;-69
2022/09/09 03:40:24;;;;;;;6.65;3.47;;;;;;;12.74;100.00;100447.53;1969373;28;20033;-71
2022/09/09 03:41:23;;;;;;;10.65;3.70;;;;;;;12.71;100.00;100432.00;1970222;28;20055;-69
2022/09/09 03:42:21;;;;;;;12.70;4.10;;;;;;;12.69;100.00;100429.47;1970145;28;20030;-70
2022/09/09 03:43:19;;;;;;;8.98;3.97;;;;;;;12.69;100.00;100433.88;1970249;28;20392;-68
2022/09/09 03:44:17;;;;;;;8.77;3.33;;;;;;;12.70;100.00;100439.00;1969774;28;20543;-69
2022/09/09 03:45:14;;;;;;;8.82;3.67;;;;;;;12.72;100.00;100433.66;1969463;28;20084;-71
2022/09/09 03:46:11;;;;;;;6.78;3.33;;;;;;;12.73;100.00;100430.97;1970206;28;20061;-70
2022/09/09 03:47:09;;;;;;;8.10;3.60;;;;;;;12.73;100.00;100430.97;1970196;28;20061;-69
2022/09/09 03:48:06;;;;;;;9.68;3.90;;;;;;;12.78;100.00;100438.56;1970257;28;20120;-72
2022/09/09 03:49:03;;;;;;;9.10;3.38;;;;;;;12.78;100.00;100432.47;1961910;28;20184;-69
2022/09/09 03:50:01;;;;;;;11.50;3.80;;;;;;;12.76;100.00;100435.16;1961968;28;20026;-69
2022/09/09 03:51:00;;;;;;;11.13;3.88;;;;;;;12.76;100.00;100437.78;1969317;28;20048;-69
2022/09/09 03:51:58;;;;;;;9.23;4.03;;;;;;;12.77;100.00;100442.13;1970222;28;20029;-70
2022/09/09 03:52:56;;;;;;;6.15;3.38;;;;;;;12.77;100.00;100436.88;1961787;28;20375;-68
2022/09/09 03:53:55;;;;;;;6.63;3.63;;;;;;;12.78;100.00;100438.56;1961836;28;20022;-69
2022/09/09 03:54:53;;;;;;;11.02;3.90;;;;;;;12.77;100.00;100431.63;1961707;28;20149;-69
2022/09/09 03:55:59;;;;;;;7.53;3.60;;;;;;;12.78;100.00;100430.69;1969671;28;20160;-68
2022/09/09 03:56:57;;;;;;;8.32;3.90;;;;;;;12.75;100.00;100431.72;1970080;28;20054;-69
2022/09/09 03:57:55;;;;;;;8.32;3.95;;;;;;;12.78;100.00;100433.31;1970079;28;20024;-69
2022/09/09 03:58:52;;;;;;;7.90;3.75;;;;;;;12.79;100.00;100435.00;1961845;28;20029;-70
2022/09/09 03:59:49;;;;;;;10.07;3.60;;;;;;;12.81;100.00;100429.66;1961878;28;20033;-70
2022/09/09 04:00:55;;;;;;;8.40;3.60;;;;;;;12.82;100.00;100431.34;1969200;28;20044;-68
2022/09/09 04:01:53;;;;;;;8.32;3.92;;;;;;;12.79;100.00;100435.00;1970082;28;20026;-70
2022/09/09 04:02:53;;;;;;;5.45;3.45;;;;;;;12.79;100.00;100439.41;1970044;28;20100;-70
2022/09/09 04:03:52;;;;;;;11.90;4.15;;;;;;;12.79;100.00;100428.94;1970014;28;20454;-68
2022/09/09 04:04:49;;;;;;;7.35;3.72;;;;;;;12.77;100.00;100434.25;1967796;28;20036;-70
2022/09/09 04:05:49;;;;;;;10.25;3.83;;;;;;;12.76;100.00;100435.16;1970031;28;20480;-69
2022/09/09 04:06:48;;;;;;;7.78;3.97;;;;;;;12.76;100.00;100429.94;1970016;28;20037;-68
2022/09/09 04:07:45;;;;;;;10.43;4.22;;;;;;;12.73;100.00;100424.91;1969995;28;20048;-68
2022/09/09 04:08:43;;;;;;;8.52;3.85;;;;;;;12.75;100.00;100431.72;1970033;28;20022;-67
2022/09/09 04:09:40;;;;;;;11.10;4.05;;;;;;;12.74;100.00;100426.56;1969992;28;20116;-69
2022/09/09 04:10:38;;;;;;;10.90;4.43;;;;;;;12.74;100.00;100421.34;1970101;28;20022;-69
2022/09/09 04:11:36;;;;;;;11.40;4.65;;;;;;;12.73;100.00;100424.91;1969973;28;20030;-68
2022/09/09 04:12:34;;;;;;;11.38;4.05;;;;;;;12.73;100.00;100420.50;1970078;28;20029;-69
2022/09/09 04:13:34;;;;;;;9.45;4.15;;;;;;;12.80;100.00;100428.81;1970084;28;20500;-76
2022/09/09 04:14:31;;;;;;;10.38;4.30;;;;;;;12.78;100.00;100433.31;1970019;28;20500;-69
2022/09/09 04:15:30;;;;;;;8.35;3.95;;;;;;;12.78;100.00;100428.09;1961716;28;20030;-68
2022/09/09 04:16:27;;;;;;;10.55;4.03;;;;;;;12.78;100.00;100433.31;1961696;28;20559;-71
2022/09/09 04:17:25;;;;;;;10.90;4.05;;;;;;;12.78;100.00;100422.84;1969316;28;20034;-68
2022/09/09 04:18:23;;;;;;;8.50;3.90;;;;;;;12.79;100.00;100424.53;1969924;28;20396;-71
2022/09/09 04:19:21;;;;;;;11.05;4.03;;;;;;;12.78;100.00;100419.38;1969900;28;20080;-69
2022/09/09 04:20:19;;;;;;;12.23;4.15;;;;;;;12.78;100.00;100417.59;1969946;28;20076;-69
2022/09/09 04:21:17;;;;;;;9.02;4.00;;;;;;;12.78;100.00;100420.22;1961668;28;20502;-68
2022/09/09 04:22:14;;;;;;;12.45;4.00;;;;;;;12.77;100.00;100426.41;1961690;28;20041;-68
2022/09/09 04:23:12;;;;;;;9.13;3.92;;;;;;;12.78;100.00;100422.00;1961734;28;20034;-68
2022/09/09 04:24:09;;;;;;;12.98;4.07;;;;;;;12.80;100.00;100420.16;1961454;28;20098;-70
2022/09/09 04:25:07;;;;;;;11.30;3.65;;;;;;;12.81;100.00;100416.59;1969146;28;20032;-67
2022/09/09 04:26:05;;;;;;;8.85;4.10;;;;;;;12.81;100.00;100422.69;1969924;28;20057;-68
2022/09/09 04:27:03;;;;;;;12.60;4.32;;;;;;;12.83;100.00;100420.78;1961522;28;20022;-68
2022/09/09 04:28:02;;;;;;;9.25;3.80;;;;;;;12.84;100.00;100422.50;1961740;28;20446;-69
2022/09/09 04:28:59;;;;;;;14.02;3.83;;;;;;;12.85;100.00;100411.09;1969160;28;20033;-69
2022/09/09 04:29:57;;;;;;;10.43;3.95;;;;;;;12.86;100.00;100411.91;1969892;28;20037;-68
2022/09/09 04:30:56;;;;;;;10.88;4.07;;;;;;;12.88;100.00;100420.53;1969721;28;20552;-70
2022/09/09 04:31:54;;;;;;;12.02;4.30;;;;;;;12.89;100.00;100409.13;1969903;28;20029;-70
2022/09/09 04:32:51;;;;;;;11.90;4.10;;;;;;;12.91;100.00;100414.25;1969892;28;20386;-71
2022/09/09 04:33:50;;;;;;;11.25;3.97;;;;;;;12.89;100.00;100414.34;1969956;28;20101;-69
2022/09/09 04:34:47;;;;;;;11.45;4.43;;;;;;;12.90;100.00;100409.97;1967637;28;20131;-69
2022/09/09 04:35:48;;;;;;;9.50;4.22;;;;;;;12.89;100.00;100406.50;1969945;28;20457;-70
2022/09/09 04:36:45;;;;;;;;;;;;;;;12.88;100.00;100408.28;1961927;28;20084;-71
2022/09/09 04:37:42;;;;;;;11.93;4.00;;;;;;;12.86;100.00;100410.13;1961665;28;19956;-70
2022/09/09 04:38:40;;;;;;;10.05;3.50;;;;;;;12.86;100.00;100404.06;1968903;28;20536;-70
2022/09/09 04:39:37;;;;;;;8.18;3.70;;;;;;;12.87;100.00;100406.59;1961560;28;20030;-73
2022/09/09 04:40:35;;;;;;;8.27;3.47;;;;;;;12.87;100.00;100406.59;1961626;28;20304;-69
2022/09/09 04:41:33;;;;;;;15.25;3.80;;;;;;;12.90;100.00;100407.34;1961491;28;20394;-70
2022/09/09 04:42:35;;;;;;;12.80;3.83;;;;;;;12.88;100.00;100404.81;1961631;28;20030;-70
2022/09/09 04:43:34;;;;;;;13.23;3.90;;;;;;;12.90;100.00;100404.72;1969493;28;20496;-70
2022/09/09 04:44:31;;;;;;;12.32;4.13;;;;;;;12.90;100.00;100397.69;1961489;28;20038;-71
2022/09/09 04:45:29;;;;;;;9.68;3.83;;;;;;;12.90;100.00;100399.50;1961631;28;20086;-69
2022/09/09 04:46:26;;;;;;;12.50;3.92;;;;;;;12.90;100.00;100404.72;1968978;28;20101;-70
2022/09/09 04:47:24;;;;;;;11.35;4.00;;;;;;;12.91;100.00;100411.66;1969767;28;20037;-69
2022/09/09 04:48:21;;;;;;;10.93;3.85;;;;;;;12.91;100.00;100407.25;1969746;28;20032;-69
2022/09/09 04:49:19;;;;;;;12.82;3.95;;;;;;;12.91;100.00;100406.41;1969706;28;20030;-69
2022/09/09 04:50:16;;;;;;;13.23;4.15;;;;;;;12.91;100.00;100406.41;1969848;28;20389;-68
2022/09/09 04:51:14;;;;;;;10.35;4.03;;;;;;;12.91;100.00;100398.56;1961491;28;20387;-69
2022/09/09 04:52:12;;;;;;;9.63;3.78;;;;;;;12.92;100.00;100405.47;1961571;28;20030;-69
2022/09/09 04:53:09;;;;;;;16.08;4.40;;;;;;;12.92;100.00;100401.09;1969042;28;20021;-69
2022/09/09 04:54:07;;;;;;;9.55;4.05;;;;;;;12.94;100.00;100399.22;1969684;28;20049;-69
2022/09/09 04:55:05;;;;;;;8.95;3.80;;;;;;;12.93;100.00;100401.94;1961384;28;20371;-70
2022/09/09 04:56:12;;;;;;;10.13;3.92;;;;;;;12.94;100.00;100403.63;1961149;28;20123;-70
2022/09/09 04:57:10;;;;;;;13.88;4.45;;;;;;;12.96;100.00;100404.34;1969803;28;20034;-68
2022/09/09 04:58:08;;;;;;;10.85;3.83;;;;;;;12.95;100.00;100400.06;1969712;28;20030;-73